Robertville, South Carolina
Current Conditions -  °F | °C
As of 5:55 PM on Tuesday 27 Jan 2015 (Local Time) from KJYL Reporting Station
Clear Clear  
Wind Chill: 45°   Ceiling: Unl
Heat Index: 48°   Visibility: 10mi
Dew Point: 33°   Wind: 8mph
Humidity: 56%   Direction: 320°NW
Pressure: 29.94"   Gusts: NA
Location:  32.6001°N, 81.2393°W
Report Text: KJYL 272255Z AUTO 32007KT 10SM CLR 09/01 A2994 RMK AO2 T00910008
Loading
Personal Weather Stations






























Interactive Weather Map New forecast layout! Learn more

10-Day Weather Forecast

Advertisements
Track Severe Weather on mobile